createdAt,value
2019-04-25T00:01:54.472Z,40.80
2019-04-25T00:04:24.457Z,44.90
2019-04-25T00:06:53.753Z,40.90
2019-04-25T00:09:25.290Z,40.80
2019-04-25T00:11:55.314Z,38.33
2019-04-25T00:14:25.497Z,42.27
2019-04-25T00:16:54.638Z,44.10
2019-04-25T00:19:23.881Z,45.77
2019-04-25T00:22:04.506Z,38.27
2019-04-25T00:24:56.214Z,44.37
2019-04-25T00:27:26.528Z,41.37
2019-04-25T00:29:57.258Z,40.97
2019-04-25T00:32:26.592Z,44.50
2019-04-25T00:34:55.909Z,43.70
2019-04-25T00:37:25.752Z,41.23
2019-04-25T00:39:55.110Z,39.43
2019-04-25T00:42:24.306Z,39.90
2019-04-25T00:44:54.056Z,38.87
2019-04-25T00:47:23.322Z,41.60
2019-04-25T00:49:53.257Z,41.30
2019-04-25T00:52:23.127Z,42.20
2019-04-25T00:54:53.535Z,43.20
2019-04-25T00:57:23.541Z,46.43
2019-04-25T00:59:59.445Z,44.03
2019-04-25T01:02:35.150Z,42.80
2019-04-25T01:05:05.679Z,44.13
2019-04-25T01:07:34.977Z,39.70
2019-04-25T01:10:14.202Z,39.43
2019-04-25T01:12:44.569Z,41.23
2019-04-25T01:15:14.579Z,43.73
2019-04-25T01:17:45.271Z,39.87
2019-04-25T01:20:15.492Z,39.63
2019-04-25T01:22:45.660Z,39.63
2019-04-25T01:25:15.208Z,43.03
2019-04-25T01:27:44.462Z,39.73
2019-04-25T01:30:16.281Z,42.07
2019-04-25T01:32:46.688Z,43.57
2019-04-25T01:35:25.497Z,36.53
2019-04-25T01:38:09.576Z,49.67
2019-04-25T01:41:10.330Z,45.60
2019-04-25T01:43:45.409Z,41.50
2019-04-25T01:46:15.069Z,43.70
2019-04-25T01:48:45.588Z,40.30
2019-04-25T01:51:14.976Z,42.77
2019-04-25T01:53:44.282Z,45.10
2019-04-25T01:56:13.636Z,51.17
2019-04-25T01:58:43.899Z,42.33
2019-04-25T02:01:15.070Z,38.30
2019-04-25T02:03:44.406Z,42.37
2019-04-25T02:06:14.015Z,44.30
2019-04-25T02:08:44.116Z,40.40
2019-04-25T02:11:24.203Z,39.97
2019-04-25T02:13:54.943Z,41.83
2019-04-25T02:16:24.958Z,39.83
2019-04-25T02:18:55.530Z,42.27
2019-04-25T02:21:26.247Z,44.23
2019-04-25T02:23:57.049Z,41.43
2019-04-25T02:26:26.726Z,39.80
2019-04-25T02:28:57.236Z,44.23
2019-04-25T02:31:26.780Z,41.90
2019-04-25T02:33:57.933Z,43.87
2019-04-25T02:36:27.951Z,40.87
2019-04-25T02:39:01.236Z,42.53
2019-04-25T02:41:28.997Z,44.80
2019-04-25T02:44:02.970Z,41.90
2019-04-25T02:47:00.528Z,40.70
2019-04-25T02:50:09.064Z,42.67
2019-04-25T02:53:01.334Z,43.67
2019-04-25T02:55:36.873Z,43.97
2019-04-25T02:58:05.658Z,46.77
2019-04-25T03:00:51.729Z,44.00
2019-04-25T03:03:07.484Z,43.13
2019-04-25T03:05:36.701Z,42.87
2019-04-25T03:08:09.611Z,37.77
2019-04-25T03:10:37.826Z,44.07
2019-04-25T03:13:11.637Z,38.80
2019-04-25T03:15:38.559Z,50.13
2019-04-25T03:18:11.170Z,43.60
2019-04-25T03:20:54.985Z,44.97
2019-04-25T03:23:46.180Z,41.27
2019-04-25T03:26:15.223Z,41.73
2019-04-25T03:28:44.954Z,43.23
2019-04-25T03:31:21.824Z,42.03
2019-04-25T03:33:46.368Z,45.13
2019-04-25T03:36:16.887Z,40.40
2019-04-25T03:38:46.547Z,45.57
2019-04-25T03:41:16.149Z,47.70
2019-04-25T03:43:45.345Z,39.20
2019-04-25T03:46:14.550Z,42.40
2019-04-25T03:48:44.358Z,44.63
2019-04-25T03:51:15.694Z,43.13
2019-04-25T03:53:45.146Z,41.10
2019-04-25T03:56:14.638Z,47.63
2019-04-25T03:58:44.417Z,42.20
2019-04-25T04:01:15.632Z,42.57
2019-04-25T04:03:45.044Z,46.17
2019-04-25T04:06:15.562Z,40.87
2019-04-25T04:08:45.085Z,43.90
2019-04-25T04:11:15.529Z,43.20
2019-04-25T04:13:44.872Z,46.20
2019-04-25T04:16:16.877Z,41.73
2019-04-25T04:18:48.402Z,46.07
2019-04-25T04:21:35.424Z,44.83
2019-04-25T04:24:14.152Z,42.53
2019-04-25T04:26:45.901Z,42.73
2019-04-25T04:29:16.381Z,45.47
2019-04-25T04:31:47.225Z,40.63
2019-04-25T04:34:17.063Z,41.27
2019-04-25T04:36:46.651Z,38.23
2019-04-25T04:39:17.772Z,42.97
2019-04-25T04:41:47.578Z,43.47
2019-04-25T04:44:16.716Z,42.20
2019-04-25T04:46:46.349Z,39.70
2019-04-25T04:49:16.474Z,38.30
2019-04-25T04:51:47.338Z,37.70
2019-04-25T04:54:17.124Z,39.87
2019-04-25T04:56:46.393Z,36.27
2019-04-25T04:59:16.404Z,37.80
2019-04-25T05:02:15.038Z,41.73
2019-04-25T05:05:03.651Z,43.43
2019-04-25T05:07:47.441Z,44.37
2019-04-25T05:10:18.677Z,38.10
2019-04-25T05:12:48.117Z,41.10
2019-04-25T05:15:18.906Z,36.47
2019-04-25T05:17:48.549Z,45.67
2019-04-25T05:20:18.897Z,35.87
2019-04-25T05:22:48.701Z,41.93
2019-04-25T05:25:19.140Z,40.63
2019-04-25T05:27:59.625Z,33.70
2019-04-25T05:30:26.529Z,34.60
2019-04-25T05:32:56.551Z,34.40
2019-04-25T05:35:26.338Z,31.87
2019-04-25T05:37:56.116Z,36.33
2019-04-25T05:40:25.856Z,30.60
2019-04-25T05:43:03.630Z,41.03
2019-04-25T05:45:34.079Z,34.00
2019-04-25T05:48:04.227Z,35.77
2019-04-25T05:50:35.399Z,37.37
2019-04-25T05:53:06.058Z,44.23
2019-04-25T05:55:35.762Z,35.67
2019-04-25T05:58:05.636Z,36.77
2019-04-25T06:00:35.438Z,39.70
2019-04-25T06:03:05.187Z,38.87
2019-04-25T06:05:34.525Z,42.97
2019-04-25T06:08:04.463Z,40.63
2019-04-25T06:10:48.460Z,42.60
2019-04-25T06:13:39.914Z,39.53
2019-04-25T06:16:14.491Z,42.83
2019-04-25T06:19:13.970Z,41.30
2019-04-25T06:21:38.776Z,40.60
2019-04-25T06:24:24.536Z,39.77
2019-04-25T06:27:19.715Z,40.90
2019-04-25T06:29:59.067Z,35.70
2019-04-25T06:32:24.984Z,37.10
2019-04-25T06:34:55.581Z,35.03
2019-04-25T06:37:25.810Z,36.07
2019-04-25T06:39:55.254Z,33.67
2019-04-25T06:42:25.546Z,32.67
2019-04-25T06:45:21.497Z,28.93
2019-04-25T06:48:10.385Z,31.33
2019-04-25T06:50:39.751Z,32.37
2019-04-25T06:53:09.372Z,31.80
2019-04-25T06:55:39.039Z,29.77
2019-04-25T06:58:12.151Z,26.70
2019-04-25T07:00:42.648Z,25.33
2019-04-25T07:03:11.418Z,23.73
2019-04-25T07:05:43.912Z,20.73
2019-04-25T07:08:13.670Z,17.17
2019-04-25T07:10:44.620Z,19.87
2019-04-25T07:13:15.046Z,23.10
2019-04-25T07:15:44.146Z,17.67
2019-04-25T07:18:13.989Z,21.03
2019-04-25T07:20:45.329Z,20.30
2019-04-25T07:23:15.418Z,16.10
2019-04-25T07:25:53.798Z,18.27
2019-04-25T07:28:43.921Z,22.85
2019-04-25T07:31:33.486Z,16.02
2019-04-25T07:34:28.868Z,12.82
2019-04-25T07:36:58.952Z,16.67
2019-04-25T07:39:28.474Z,17.13
2019-04-25T07:41:58.270Z,22.50
2019-04-25T07:44:38.226Z,18.77
2019-04-25T07:46:59.107Z,15.63
2019-04-25T07:49:28.778Z,18.90
2019-04-25T07:51:58.986Z,20.53
2019-04-25T07:54:28.995Z,18.37
2019-04-25T07:56:59.034Z,17.30
2019-04-25T07:59:29.270Z,20.60
2019-04-25T08:01:58.982Z,16.83
2019-04-25T08:04:29.366Z,15.03
2019-04-25T08:06:58.707Z,15.37
2019-04-25T08:09:29.431Z,19.27
2019-04-25T08:11:59.160Z,23.20
2019-04-25T08:14:35.115Z,15.28
2019-04-25T08:17:05.756Z,18.02
2019-04-25T08:19:35.576Z,19.10
2019-04-25T08:22:05.200Z,15.32
2019-04-25T08:24:35.869Z,17.15
2019-04-25T08:27:06.217Z,14.45
2019-04-25T08:29:37.999Z,13.75
2019-04-25T08:32:06.483Z,10.98
2019-04-25T08:34:36.300Z,12.50
2019-04-25T08:37:17.516Z,13.32
2019-04-25T08:39:38.767Z,16.50
2019-04-25T08:42:08.634Z,16.23
2019-04-25T08:44:39.179Z,15.68
2019-04-25T08:47:08.931Z,12.33
2019-04-25T08:49:57.709Z,9.15
2019-04-25T08:52:27.445Z,10.10
2019-04-25T08:55:04.878Z,14.33
2019-04-25T08:58:06.009Z,9.77
2019-04-25T09:01:01.341Z,11.67
2019-04-25T09:03:38.670Z,14.90
2019-04-25T09:06:08.513Z,7.17
2019-04-25T09:08:38.456Z,9.57
2019-04-25T09:11:09.137Z,7.57
2019-04-25T09:13:39.537Z,6.07
2019-04-25T09:16:09.303Z,7.23
2019-04-25T09:18:38.599Z,14.70
2019-04-25T09:21:08.238Z,10.10
2019-04-25T09:23:37.977Z,7.17
2019-04-25T09:26:08.262Z,10.17
2019-04-25T09:28:38.951Z,7.07
2019-04-25T09:31:08.700Z,7.30
2019-04-25T09:33:37.942Z,4.53
2019-04-25T09:36:07.256Z,9.63
2019-04-25T09:38:36.918Z,22.83
2019-04-25T09:41:06.702Z,20.83
2019-04-25T09:43:37.271Z,6.07
2019-04-25T09:46:21.687Z,6.00
2019-04-25T09:49:02.084Z,7.23
2019-04-25T09:51:53.565Z,5.97
2019-04-25T09:54:34.408Z,6.20
2019-04-25T09:57:18.234Z,6.07
2019-04-25T09:59:48.163Z,5.77
2019-04-25T10:02:17.607Z,3.03
2019-04-25T10:04:46.989Z,4.60
2019-04-25T10:07:16.247Z,5.77
2019-04-25T10:09:46.245Z,5.87
2019-04-25T10:12:15.589Z,17.17
2019-04-25T10:14:51.944Z,42.63
2019-04-25T10:17:21.137Z,12.17
2019-04-25T10:19:51.591Z,7.67
2019-04-25T10:22:20.802Z,3.23
2019-04-25T10:24:58.895Z,3.57
2019-04-25T10:27:22.181Z,7.30
2019-04-25T10:29:54.469Z,3.73
2019-04-25T10:32:23.778Z,3.80
2019-04-25T10:34:53.647Z,5.53
2019-04-25T10:37:23.331Z,3.87
2019-04-25T10:39:55.272Z,6.53
2019-04-25T10:42:24.496Z,2.27
2019-04-25T10:44:56.477Z,4.20
2019-04-25T10:47:25.217Z,3.90
2019-04-25T10:49:55.504Z,11.77
2019-04-25T10:52:26.955Z,3.50
2019-04-25T10:54:56.262Z,1.57
2019-04-25T10:57:26.497Z,4.47
2019-04-25T11:00:06.543Z,1.87
2019-04-25T11:02:29.238Z,1.80
2019-04-25T11:05:05.027Z,1.57
2019-04-25T11:07:34.237Z,3.10
2019-04-25T11:10:03.976Z,4.17
2019-04-25T11:12:34.634Z,7.73
2019-04-25T11:15:06.115Z,8.53
2019-04-25T11:17:36.417Z,6.83
2019-04-25T11:20:06.982Z,0.80
2019-04-25T11:22:36.624Z,4.67
2019-04-25T11:25:06.510Z,0.80
2019-04-25T11:27:35.836Z,3.53
2019-04-25T11:30:10.757Z,1.97
2019-04-25T11:32:37.676Z,8.50
2019-04-25T11:35:07.998Z,3.67
2019-04-25T11:37:38.196Z,4.17
2019-04-25T11:40:23.546Z,2.83
2019-04-25T11:42:54.242Z,5.10
2019-04-25T11:45:23.677Z,2.27
2019-04-25T11:47:54.407Z,4.83
2019-04-25T11:50:23.671Z,3.40
2019-04-25T11:52:54.692Z,3.17
2019-04-25T11:55:24.172Z,6.87
2019-04-25T11:57:54.949Z,1.80
2019-04-25T12:00:27.551Z,5.70
2019-04-25T12:02:57.436Z,3.77
2019-04-25T12:05:26.692Z,7.83
2019-04-25T12:07:56.275Z,5.33
2019-04-25T12:10:27.954Z,3.97
2019-04-25T12:12:57.865Z,5.37
2019-04-25T12:15:27.650Z,2.50
2019-04-25T12:17:57.582Z,5.00
2019-04-25T12:20:27.358Z,6.97
2019-04-25T12:23:05.924Z,2.77
2019-04-25T12:25:28.475Z,4.93
2019-04-25T12:27:57.722Z,4.57
2019-04-25T12:30:37.305Z,5.43
2019-04-25T12:32:58.692Z,4.33
2019-04-25T12:35:29.107Z,5.30
2019-04-25T12:37:58.215Z,4.77
2019-04-25T12:40:27.834Z,10.37
2019-04-25T12:42:57.106Z,7.50
2019-04-25T12:45:34.281Z,5.67
2019-04-25T12:48:04.401Z,4.57
2019-04-25T12:50:34.083Z,4.67
2019-04-25T12:53:03.856Z,4.53
2019-04-25T12:55:34.279Z,4.17
2019-04-25T12:58:03.966Z,5.10
2019-04-25T13:00:34.228Z,6.17
2019-04-25T13:03:06.764Z,2.37
2019-04-25T13:05:35.431Z,2.63
2019-04-25T13:08:04.942Z,1.87
2019-04-25T13:10:34.615Z,3.43
2019-04-25T13:13:07.021Z,2.67
2019-04-25T13:15:36.932Z,3.67
2019-04-25T13:18:06.710Z,1.50
2019-04-25T13:20:36.495Z,2.37
2019-04-25T13:23:07.648Z,3.53
2019-04-25T13:25:37.423Z,4.87
2019-04-25T13:28:23.235Z,9.20
2019-04-25T13:31:15.451Z,3.73
2019-04-25T13:34:10.391Z,3.80
2019-04-25T13:36:40.753Z,9.00
2019-04-25T13:39:17.034Z,9.90
2019-04-25T13:41:46.794Z,11.20
2019-04-25T13:44:16.473Z,10.30
2019-04-25T13:46:46.183Z,6.57
2019-04-25T13:49:16.247Z,6.33
2019-04-25T13:51:45.886Z,10.57
2019-04-25T13:54:15.338Z,12.30
2019-04-25T13:56:44.895Z,10.37
2019-04-25T13:59:14.815Z,11.27
2019-04-25T14:01:45.010Z,11.03
2019-04-25T14:04:14.299Z,11.53
2019-04-25T14:06:43.890Z,10.47
2019-04-25T14:09:18.621Z,14.60
2019-04-25T14:11:48.400Z,18.37
2019-04-25T14:14:17.930Z,18.90
2019-04-25T14:17:13.855Z,15.80
2019-04-25T14:20:00.968Z,17.57
2019-04-25T14:22:30.865Z,20.20
2019-04-25T14:25:00.580Z,18.17
2019-04-25T14:27:30.314Z,27.53
2019-04-25T14:29:59.950Z,23.30
2019-04-25T14:32:30.174Z,26.50
2019-04-25T14:34:59.470Z,31.90
2019-04-25T14:37:32.263Z,33.93
2019-04-25T14:39:59.886Z,34.10
2019-04-25T14:42:29.101Z,33.40
2019-04-25T14:44:58.673Z,35.73
2019-04-25T14:47:27.918Z,39.93
2019-04-25T14:49:57.299Z,37.30
2019-04-25T14:52:26.905Z,38.77
2019-04-25T14:55:15.750Z,41.70
2019-04-25T14:57:45.065Z,34.07
2019-04-25T15:00:29.071Z,35.57
2019-04-25T15:02:58.759Z,38.20
2019-04-25T15:05:28.469Z,38.50
2019-04-25T15:07:58.139Z,45.87
2019-04-25T15:10:28.587Z,44.00
2019-04-25T15:12:58.682Z,44.73
2019-04-25T15:15:29.301Z,46.30
2019-04-25T15:17:58.624Z,41.27
2019-04-25T15:20:28.160Z,39.73
2019-04-25T15:22:57.805Z,37.07
2019-04-25T15:25:27.478Z,37.47
2019-04-25T15:27:57.276Z,36.27
2019-04-25T15:30:29.644Z,38.10
2019-04-25T15:32:59.494Z,38.30
2019-04-25T15:35:35.125Z,29.57
2019-04-25T15:38:08.126Z,30.93
2019-04-25T15:40:57.025Z,30.80
2019-04-25T15:43:33.482Z,26.03
2019-04-25T15:46:21.450Z,27.27
2019-04-25T15:48:50.602Z,24.30
2019-04-25T15:51:20.326Z,25.13
2019-04-25T15:53:50.008Z,20.33
2019-04-25T15:56:19.323Z,21.17
2019-04-25T15:58:48.934Z,18.03
2019-04-25T16:01:18.892Z,21.33
2019-04-25T16:03:48.677Z,25.17
2019-04-25T16:06:18.328Z,18.20
2019-04-25T16:08:48.267Z,23.83
2019-04-25T16:11:17.838Z,21.80
2019-04-25T16:13:47.139Z,20.70
2019-04-25T16:16:16.746Z,21.50
2019-04-25T16:18:46.794Z,16.63
2019-04-25T16:21:16.644Z,18.47
2019-04-25T16:44:07.875Z,19.97
2019-04-25T16:47:02.234Z,18.97
2019-04-25T16:49:14.497Z,19.80
2019-04-25T16:52:00.560Z,16.73
2019-04-25T16:54:32.664Z,22.37
2019-04-25T16:57:05.801Z,22.37
2019-04-25T16:59:42.430Z,20.13
2019-04-25T17:02:13.138Z,19.70
2019-04-25T17:04:48.829Z,20.67
2019-04-25T17:07:52.489Z,21.80
2019-04-25T17:10:26.169Z,18.77
2019-04-25T17:13:05.734Z,21.93
2019-04-25T17:16:07.503Z,26.83
2019-04-25T17:18:59.183Z,21.00
2019-04-25T17:21:45.704Z,20.60
2019-04-25T17:24:16.709Z,23.50
2019-04-25T17:26:55.926Z,21.67
2019-04-25T17:29:38.442Z,23.40
2019-04-25T17:32:49.468Z,20.47
2019-04-25T17:35:47.378Z,25.47
2019-04-25T17:45:33.410Z,27.03
2019-04-25T17:48:03.032Z,27.50
2019-04-25T17:50:32.952Z,31.13
2019-04-25T17:53:02.973Z,25.47
2019-04-25T17:55:33.187Z,30.57
2019-04-25T17:58:03.583Z,28.70
2019-04-25T18:00:37.838Z,24.60
2019-04-25T18:03:10.882Z,27.37
2019-04-25T18:05:41.388Z,28.80
2019-04-25T18:08:10.936Z,24.70
2019-04-25T18:10:40.778Z,26.87
2019-04-25T18:13:10.566Z,34.80
2019-04-25T18:16:14.506Z,34.00
2019-04-25T18:18:56.927Z,33.37
2019-04-25T18:21:26.689Z,27.83
2019-04-25T18:24:12.990Z,27.50
2019-04-25T18:26:53.235Z,31.30
2019-04-25T18:29:22.715Z,30.73
2019-04-25T18:31:52.934Z,28.07
2019-04-25T18:34:31.328Z,27.13
2019-04-25T18:37:12.417Z,26.10
2019-04-25T18:39:54.766Z,29.37
2019-04-25T18:42:36.553Z,32.23
2019-04-25T18:45:10.131Z,28.43
2019-04-25T18:47:40.329Z,31.27
2019-04-25T18:50:11.762Z,28.20
2019-04-25T18:52:54.094Z,29.53
2019-04-25T18:55:29.603Z,32.47
2019-04-25T18:58:10.935Z,30.63
2019-04-25T19:00:58.911Z,28.63
2019-04-25T19:04:02.312Z,32.00
2019-04-25T19:06:31.680Z,27.87
2019-04-25T19:09:00.925Z,28.07
2019-04-25T19:11:32.315Z,29.03
2019-04-25T19:14:01.703Z,29.60
2019-04-25T19:16:31.334Z,27.73
2019-04-25T19:19:00.488Z,30.23
2019-04-25T19:21:30.127Z,32.83
2019-04-25T19:23:59.914Z,26.30
2019-04-25T19:26:29.660Z,29.20
2019-04-25T19:28:59.558Z,32.50
2019-04-25T19:31:28.883Z,28.07
2019-04-25T19:33:58.469Z,28.17
2019-04-25T19:36:28.235Z,29.77
2019-04-25T19:38:58.380Z,29.23
2019-04-25T19:41:37.099Z,32.20
2019-04-25T19:44:09.982Z,28.23
2019-04-25T19:46:44.823Z,32.23
2019-04-25T19:49:14.191Z,33.77
2019-04-25T19:51:45.080Z,35.23
2019-04-25T19:54:14.471Z,31.57
2019-04-25T19:56:43.966Z,30.47
2019-04-25T19:59:13.199Z,30.90
2019-04-25T20:01:44.030Z,31.60
2019-04-25T20:04:27.238Z,29.93
2019-04-25T20:07:15.736Z,31.73
2019-04-25T20:10:09.315Z,28.27
2019-04-25T20:12:51.318Z,32.20
2019-04-25T20:15:18.054Z,30.63
2019-04-25T20:17:47.695Z,33.97
2019-04-25T20:20:18.026Z,30.40
2019-04-25T20:22:48.279Z,32.10
2019-04-25T20:25:18.050Z,32.37
2019-04-25T20:27:48.529Z,30.60
2019-04-25T20:30:18.664Z,33.90
2019-04-25T20:32:49.220Z,33.27
2019-04-25T20:35:30.385Z,27.47
2019-04-25T20:38:03.022Z,30.63
2019-04-25T20:40:32.517Z,26.37
2019-04-25T20:43:04.584Z,27.20
2019-04-25T20:45:33.896Z,35.60
2019-04-25T20:48:04.718Z,27.67
2019-04-25T20:50:33.983Z,30.27
2019-04-25T20:53:03.851Z,29.60
2019-04-25T20:55:33.283Z,26.30
2019-04-25T20:58:02.474Z,28.07
2019-04-25T21:00:40.107Z,24.50
2019-04-25T21:03:10.018Z,28.53
2019-04-25T21:06:26.669Z,28.60
2019-04-25T21:08:56.020Z,30.33
2019-04-25T21:11:25.214Z,27.33
2019-04-25T21:14:12.483Z,30.77
2019-04-25T21:16:58.613Z,31.97
2019-04-25T21:19:30.385Z,31.97
2019-04-25T21:22:17.262Z,32.57
2019-04-25T21:24:46.740Z,28.27
2019-04-25T21:27:17.650Z,32.13
2019-04-25T21:29:47.563Z,33.83
2019-04-25T21:32:18.903Z,39.07
2019-04-25T21:34:48.191Z,33.27
2019-04-25T21:37:17.934Z,40.23
2019-04-25T21:40:12.513Z,37.33
2019-04-25T21:42:46.554Z,38.97
2019-04-25T21:45:16.721Z,37.43
2019-04-25T21:47:47.003Z,40.90
2019-04-25T21:50:16.670Z,46.77
2019-04-25T21:52:46.194Z,48.33
2019-04-25T21:55:15.599Z,48.10
2019-04-25T21:57:45.094Z,51.23
2019-04-25T22:00:17.339Z,48.13
2019-04-25T22:02:48.954Z,48.03
2019-04-25T22:05:18.549Z,48.03
2019-04-25T22:07:48.512Z,50.90
2019-04-25T22:10:18.313Z,50.53
2019-04-25T22:12:48.053Z,49.77
2019-04-25T22:15:18.829Z,56.10
2019-04-25T22:17:48.409Z,55.23
2019-04-25T22:20:18.084Z,54.50
2019-04-25T22:22:47.815Z,55.77
2019-04-25T22:25:17.164Z,50.90
2019-04-25T22:27:47.300Z,59.67
2019-04-25T22:30:19.243Z,56.53
2019-04-25T22:33:08.038Z,52.27
2019-04-25T22:35:43.294Z,59.90
2019-04-25T22:38:13.042Z,56.30
2019-04-25T22:40:42.267Z,58.83
2019-04-25T22:43:12.686Z,57.60
2019-04-25T22:45:43.842Z,64.13
2019-04-25T22:48:13.068Z,59.03
2019-04-25T22:50:42.934Z,61.27
2019-04-25T22:53:21.808Z,65.50
2019-04-25T22:55:44.006Z,61.50
2019-04-25T22:58:13.790Z,66.80
2019-04-25T23:00:43.614Z,68.20
2019-04-25T23:03:35.067Z,65.53
2019-04-25T23:06:04.272Z,68.97
2019-04-25T23:08:34.607Z,72.97
2019-04-25T23:11:04.262Z,73.93
2019-04-25T23:13:33.842Z,68.47
2019-04-25T23:16:05.104Z,75.63
2019-04-25T23:18:34.402Z,81.03
2019-04-25T23:21:04.000Z,75.20
2019-04-25T23:23:34.312Z,76.27
2019-04-25T23:26:10.023Z,76.83
2019-04-25T23:28:40.990Z,78.80
2019-04-25T23:31:19.176Z,81.77
2019-04-25T23:33:48.514Z,82.13
2019-04-25T23:36:18.015Z,76.83
2019-04-25T23:38:47.167Z,78.80
2019-04-25T23:41:25.263Z,76.70
2019-04-25T23:43:54.528Z,78.23
2019-04-25T23:46:24.890Z,72.70
2019-04-25T23:48:54.563Z,77.30
2019-04-25T23:51:25.891Z,83.07
2019-04-25T23:54:01.299Z,79.23
2019-04-25T23:56:32.438Z,83.30
2019-04-25T23:59:11.486Z,76.90
